<?xml version="1.0" encoding="UTF-8" standalone="no" ?>
<gpx xmlns="http://www.topografix.com/GPX/1/1" xmlns:xsi="http://www.w3.org/2001/XMLSchema-instance" xsi:schemaLocation="http://www.topografix.com/GPX/1/1 http://www.topografix.com/GPX/1/1/gpx.xsd" version="1.1" creator="VisuGPX - https://www.visugpx.com">
  <metadata>
    <name>Avignon grenoble</name>
  </metadata>
  <wpt lat="44.89804" lon="5.55525">
    <ele>1218.1</ele>
    <name><![CDATA[Aiguillette lodge]]></name>
    <type><![CDATA[user]]></type>
  </wpt>
  <wpt lat="44.0914" lon="5.40804">
    <ele>759.9</ele>
    <name><![CDATA[Gite Pilpoil]]></name>
    <desc><![CDATA[Galerie Ciur (Boutique de cadeaux)
84390, Sault, Vaucluse, FRA]]></desc>
    <type><![CDATA[user]]></type>
  </wpt>
  <wpt lat="44.48597" lon="5.38038">
    <ele>552.8</ele>
    <name><![CDATA[Gite Praboyer]]></name>
    <type><![CDATA[user]]></type>
  </wpt>
  <trk>
    <name><![CDATA[Lundi 29]]></name>
    <extensions>
      <line xmlns="http://www.topografix.com/GPX/gpx_style/0/2">
        <color>f906ce</color>
        <opacity>0.35</opacity>
        <width>7</width>
      </line>
    </extensions>
    <trkseg>
      <trkpt lat="44.89718" lon="5.55299">
        <ele>1224.3</ele>
      </trkpt>
      <trkpt lat="44.90027" lon="5.55853">
        <ele>1204.3</ele>
      </trkpt>
      <trkpt lat="44.902" lon="5.56471">
        <ele>1192.2</ele>
      </trkpt>
      <trkpt lat="44.90174" lon="5.56652">
        <ele>1210.3</ele>
        <time>2022-12-30T22:29:40Z</time>
      </trkpt>
      <trkpt lat="44.90351" lon="5.5694">
        <ele>1188.1</ele>
        <time>2022-12-30T22:30:11Z</time>
      </trkpt>
      <trkpt lat="44.90991" lon="5.56971">
        <ele>1157</ele>
        <time>2022-12-30T22:31:23Z</time>
      </trkpt>
      <trkpt lat="44.91304" lon="5.5686">
        <ele>1151.7</ele>
        <time>2022-12-30T22:31:59Z</time>
      </trkpt>
      <trkpt lat="44.90855" lon="5.56025">
        <ele>1192.1</ele>
        <time>2022-12-30T22:33:22Z</time>
      </trkpt>
      <trkpt lat="44.90832" lon="5.5529">
        <ele>1218.9</ele>
        <time>2022-12-30T22:34:21Z</time>
      </trkpt>
      <trkpt lat="44.9168" lon="5.54798">
        <ele>1129.3</ele>
        <time>2022-12-30T22:36:08Z</time>
      </trkpt>
      <trkpt lat="44.91457" lon="5.54711">
        <ele>1102.8</ele>
        <time>2022-12-30T22:36:34Z</time>
      </trkpt>
      <trkpt lat="44.92255" lon="5.54476">
        <ele>1037</ele>
        <time>2022-12-30T22:38:05Z</time>
      </trkpt>
      <trkpt lat="44.93078" lon="5.54535">
        <ele>1030.3</ele>
        <time>2022-12-30T22:39:38Z</time>
      </trkpt>
      <trkpt lat="44.93125" lon="5.54436">
        <ele>1027.6</ele>
        <time>2022-12-30T22:39:47Z</time>
      </trkpt>
      <trkpt lat="44.93191" lon="5.54542">
        <ele>1016.6</ele>
        <time>2022-12-30T22:39:59Z</time>
      </trkpt>
      <trkpt lat="44.93336" lon="5.54543">
        <ele>1019</ele>
        <time>2022-12-30T22:40:15Z</time>
      </trkpt>
      <trkpt lat="44.9339" lon="5.5446">
        <ele>1021.9</ele>
        <time>2022-12-30T22:40:24Z</time>
      </trkpt>
      <trkpt lat="44.93456" lon="5.54554">
        <ele>1016.3</ele>
        <time>2022-12-30T22:40:34Z</time>
      </trkpt>
      <trkpt lat="44.93689" lon="5.54457">
        <ele>1047</ele>
        <time>2022-12-30T22:41:02Z</time>
      </trkpt>
      <trkpt lat="44.93832" lon="5.54619">
        <ele>1036.8</ele>
        <time>2022-12-30T22:41:22Z</time>
      </trkpt>
      <trkpt lat="44.94161" lon="5.54416">
        <ele>1050.4</ele>
        <time>2022-12-30T22:42:04Z</time>
      </trkpt>
      <trkpt lat="44.94159" lon="5.54327">
        <ele>1060.9</ele>
        <time>2022-12-30T22:42:11Z</time>
      </trkpt>
      <trkpt lat="44.94389" lon="5.54441">
        <ele>1039.8</ele>
        <time>2022-12-30T22:42:39Z</time>
      </trkpt>
      <trkpt lat="44.94474" lon="5.54369">
        <ele>1050.3</ele>
        <time>2022-12-30T22:42:50Z</time>
      </trkpt>
      <trkpt lat="44.94687" lon="5.54765">
        <ele>1038.6</ele>
        <time>2022-12-30T22:43:29Z</time>
      </trkpt>
      <trkpt lat="44.94788" lon="5.54703">
        <ele>1047.9</ele>
        <time>2022-12-30T22:43:42Z</time>
      </trkpt>
      <trkpt lat="44.94926" lon="5.54801">
        <ele>1031</ele>
        <time>2022-12-30T22:43:59Z</time>
      </trkpt>
      <trkpt lat="44.95015" lon="5.54764">
        <ele>1029.9</ele>
        <time>2022-12-30T22:44:09Z</time>
      </trkpt>
      <trkpt lat="44.95102" lon="5.54539">
        <ele>1044.7</ele>
        <time>2022-12-30T22:44:29Z</time>
      </trkpt>
      <trkpt lat="44.95675" lon="5.54808">
        <ele>1012.3</ele>
        <time>2022-12-30T22:45:37Z</time>
      </trkpt>
      <trkpt lat="44.9605" lon="5.55145">
        <ele>1024.7</ele>
        <time>2022-12-30T22:46:27Z</time>
      </trkpt>
      <trkpt lat="44.96124" lon="5.55393">
        <ele>1010.3</ele>
        <time>2022-12-30T22:46:50Z</time>
      </trkpt>
      <trkpt lat="44.96507" lon="5.55429">
        <ele>983</ele>
        <time>2022-12-30T22:47:34Z</time>
      </trkpt>
      <trkpt lat="44.96671" lon="5.55648">
        <ele>977.4</ele>
        <time>2022-12-30T22:47:59Z</time>
      </trkpt>
      <trkpt lat="44.96687" lon="5.55528">
        <ele>962.6</ele>
        <time>2022-12-30T22:48:08Z</time>
      </trkpt>
      <trkpt lat="44.97008" lon="5.55569">
        <ele>956.6</ele>
        <time>2022-12-30T22:48:45Z</time>
      </trkpt>
      <trkpt lat="44.9711" lon="5.55942">
        <ele>955.1</ele>
        <time>2022-12-30T22:49:18Z</time>
      </trkpt>
      <trkpt lat="44.9733" lon="5.56091">
        <ele>940</ele>
        <time>2022-12-30T22:49:48Z</time>
      </trkpt>
      <trkpt lat="44.97085" lon="5.56323">
        <ele>925.9</ele>
        <time>2022-12-30T22:50:22Z</time>
      </trkpt>
      <trkpt lat="44.97054" lon="5.56506">
        <ele>937.2</ele>
        <time>2022-12-30T22:50:37Z</time>
      </trkpt>
      <trkpt lat="44.97214" lon="5.56723">
        <ele>942.1</ele>
        <time>2022-12-30T22:51:02Z</time>
      </trkpt>
      <trkpt lat="44.97408" lon="5.56686">
        <ele>948</ele>
        <time>2022-12-30T22:51:24Z</time>
      </trkpt>
      <trkpt lat="44.97257" lon="5.56982">
        <ele>927.6</ele>
        <time>2022-12-30T22:51:56Z</time>
      </trkpt>
      <trkpt lat="44.97371" lon="5.56994">
        <ele>921.8</ele>
        <time>2022-12-30T22:52:09Z</time>
      </trkpt>
      <trkpt lat="44.97419" lon="5.57187">
        <ele>905.4</ele>
        <time>2022-12-30T22:52:25Z</time>
      </trkpt>
      <trkpt lat="44.9751" lon="5.57187">
        <ele>906.3</ele>
        <time>2022-12-30T22:52:35Z</time>
      </trkpt>
      <trkpt lat="44.97409" lon="5.57366">
        <ele>906.1</ele>
        <time>2022-12-30T22:52:54Z</time>
      </trkpt>
      <trkpt lat="44.97535" lon="5.57435">
        <ele>897.6</ele>
        <time>2022-12-30T22:53:09Z</time>
      </trkpt>
      <trkpt lat="44.97478" lon="5.57621">
        <ele>893.4</ele>
        <time>2022-12-30T22:53:25Z</time>
      </trkpt>
      <trkpt lat="44.9774" lon="5.57723">
        <ele>921.1</ele>
        <time>2022-12-30T22:53:55Z</time>
      </trkpt>
      <trkpt lat="44.97619" lon="5.57978">
        <ele>945.3</ele>
        <time>2022-12-30T22:54:19Z</time>
      </trkpt>
      <trkpt lat="44.98318" lon="5.58673">
        <ele>1032.5</ele>
        <time>2022-12-30T22:55:56Z</time>
      </trkpt>
      <trkpt lat="44.98014" lon="5.58097">
        <ele>1056</ele>
        <time>2022-12-30T22:56:54Z</time>
      </trkpt>
      <trkpt lat="44.98657" lon="5.58588">
        <ele>1121.6</ele>
        <time>2022-12-30T22:58:16Z</time>
      </trkpt>
      <trkpt lat="44.98649" lon="5.5892">
        <ele>1117.8</ele>
        <time>2022-12-30T22:58:43Z</time>
      </trkpt>
      <trkpt lat="44.98831" lon="5.59309">
        <ele>1141.9</ele>
        <time>2022-12-30T22:59:20Z</time>
      </trkpt>
      <trkpt lat="44.99181" lon="5.59585">
        <ele>1155.1</ele>
        <time>2022-12-30T23:00:04Z</time>
      </trkpt>
      <trkpt lat="44.99306" lon="5.59528">
        <ele>1153.9</ele>
        <time>2022-12-30T23:00:20Z</time>
      </trkpt>
      <trkpt lat="44.99696" lon="5.60266">
        <ele>1086.7</ele>
        <time>2022-12-30T23:01:35Z</time>
      </trkpt>
      <trkpt lat="44.99564" lon="5.60277">
        <ele>1076.6</ele>
        <time>2022-12-30T23:01:49Z</time>
      </trkpt>
      <trkpt lat="44.99782" lon="5.60584">
        <ele>1073.6</ele>
        <time>2022-12-30T23:02:24Z</time>
      </trkpt>
      <trkpt lat="45.00598" lon="5.60846">
        <ele>998.4</ele>
        <time>2022-12-30T23:03:58Z</time>
      </trkpt>
      <trkpt lat="45.00944" lon="5.61211">
        <ele>974.4</ele>
        <time>2022-12-30T23:04:46Z</time>
      </trkpt>
      <trkpt lat="45.01433" lon="5.61341">
        <ele>933.6</ele>
        <time>2022-12-30T23:05:43Z</time>
      </trkpt>
      <trkpt lat="45.01446" lon="5.6147">
        <ele>925</ele>
        <time>2022-12-30T23:05:54Z</time>
      </trkpt>
      <trkpt lat="45.01299" lon="5.61545">
        <ele>907</ele>
        <time>2022-12-30T23:06:11Z</time>
      </trkpt>
      <trkpt lat="45.01145" lon="5.61812">
        <ele>873.1</ele>
        <time>2022-12-30T23:06:40Z</time>
      </trkpt>
      <trkpt lat="45.0104" lon="5.62277">
        <ele>845.8</ele>
        <time>2022-12-30T23:07:18Z</time>
      </trkpt>
      <trkpt lat="45.01058" lon="5.61861">
        <ele>836.9</ele>
        <time>2022-12-30T23:07:51Z</time>
      </trkpt>
      <trkpt lat="45.00877" lon="5.61944">
        <ele>821.7</ele>
        <time>2022-12-30T23:08:14Z</time>
      </trkpt>
      <trkpt lat="45.00783" lon="5.6216">
        <ele>790.6</ele>
        <time>2022-12-30T23:08:34Z</time>
      </trkpt>
      <trkpt lat="45.00775" lon="5.61994">
        <ele>815.8</ele>
        <time>2022-12-30T23:08:47Z</time>
      </trkpt>
      <trkpt lat="45.00499" lon="5.62217">
        <ele>769.8</ele>
        <time>2022-12-30T23:09:25Z</time>
      </trkpt>
      <trkpt lat="45.00004" lon="5.62168">
        <ele>732.3</ele>
        <time>2022-12-30T23:10:20Z</time>
      </trkpt>
      <trkpt lat="45.00447" lon="5.62466">
        <ele>677</ele>
        <time>2022-12-30T23:11:15Z</time>
      </trkpt>
      <trkpt lat="45.0013" lon="5.62496">
        <ele>646.5</ele>
        <time>2022-12-30T23:11:51Z</time>
      </trkpt>
      <trkpt lat="44.99993" lon="5.62935">
        <ele>615.8</ele>
        <time>2022-12-30T23:12:28Z</time>
      </trkpt>
      <trkpt lat="45.00308" lon="5.63033">
        <ele>599.1</ele>
        <time>2022-12-30T23:13:04Z</time>
      </trkpt>
      <trkpt lat="45.00437" lon="5.62918">
        <ele>599.4</ele>
        <time>2022-12-30T23:13:21Z</time>
      </trkpt>
      <trkpt lat="45.00521" lon="5.63099">
        <ele>589.6</ele>
        <time>2022-12-30T23:13:40Z</time>
      </trkpt>
      <trkpt lat="45.00598" lon="5.62807">
        <ele>582.8</ele>
        <time>2022-12-30T23:14:05Z</time>
      </trkpt>
      <trkpt lat="45.00829" lon="5.63218">
        <ele>529.8</ele>
        <time>2022-12-30T23:14:52Z</time>
      </trkpt>
      <trkpt lat="45.00996" lon="5.63288">
        <ele>517.6</ele>
        <time>2022-12-30T23:15:14Z</time>
      </trkpt>
      <trkpt lat="45.01125" lon="5.63715">
        <ele>488.7</ele>
        <time>2022-12-30T23:15:51Z</time>
      </trkpt>
      <trkpt lat="45.01314" lon="5.638">
        <ele>470.9</ele>
        <time>2022-12-30T23:16:14Z</time>
      </trkpt>
      <trkpt lat="45.01403" lon="5.63981">
        <ele>448.8</ele>
        <time>2022-12-30T23:16:31Z</time>
      </trkpt>
      <trkpt lat="45.01579" lon="5.64013">
        <ele>442.5</ele>
        <time>2022-12-30T23:16:51Z</time>
      </trkpt>
      <trkpt lat="45.02499" lon="5.64597">
        <ele>384</ele>
        <time>2022-12-30T23:18:43Z</time>
      </trkpt>
      <trkpt lat="45.02807" lon="5.64995">
        <ele>355.7</ele>
        <time>2022-12-30T23:19:30Z</time>
      </trkpt>
      <trkpt lat="45.02819" lon="5.65148">
        <ele>360.2</ele>
        <time>2022-12-30T23:19:42Z</time>
      </trkpt>
      <trkpt lat="45.04289" lon="5.6645">
        <ele>332</ele>
        <time>2022-12-30T23:22:55Z</time>
      </trkpt>
      <trkpt lat="45.04465" lon="5.66473">
        <ele>327.7</ele>
        <time>2022-12-30T23:23:15Z</time>
      </trkpt>
      <trkpt lat="45.04879" lon="5.66774">
        <ele>321</ele>
        <time>2022-12-30T23:24:07Z</time>
      </trkpt>
      <trkpt lat="45.05264" lon="5.67708">
        <ele>312</ele>
        <time>2022-12-30T23:25:33Z</time>
      </trkpt>
      <trkpt lat="45.05809" lon="5.68305">
        <ele>299.3</ele>
        <time>2022-12-30T23:26:50Z</time>
      </trkpt>
      <trkpt lat="45.06074" lon="5.6781">
        <ele>294.7</ele>
        <time>2022-12-30T23:27:39Z</time>
      </trkpt>
      <trkpt lat="45.06291" lon="5.67655">
        <ele>292</ele>
        <time>2022-12-30T23:28:06Z</time>
      </trkpt>
      <trkpt lat="45.06365" lon="5.67369">
        <ele>291</ele>
        <time>2022-12-30T23:28:30Z</time>
      </trkpt>
      <trkpt lat="45.06595" lon="5.67329">
        <ele>296.6</ele>
        <time>2022-12-30T23:28:57Z</time>
      </trkpt>
      <trkpt lat="45.07209" lon="5.67885">
        <ele>300.1</ele>
        <time>2022-12-30T23:30:18Z</time>
      </trkpt>
      <trkpt lat="45.07246" lon="5.68039">
        <ele>280.5</ele>
        <time>2022-12-30T23:30:31Z</time>
      </trkpt>
      <trkpt lat="45.07356" lon="5.68029">
        <ele>291.5</ele>
        <time>2022-12-30T23:30:44Z</time>
      </trkpt>
      <trkpt lat="45.08445" lon="5.68717">
        <ele>274.6</ele>
        <time>2022-12-30T23:32:56Z</time>
      </trkpt>
      <trkpt lat="45.08424" lon="5.68797">
        <ele>274.7</ele>
        <time>2022-12-30T23:33:03Z</time>
      </trkpt>
      <trkpt lat="45.08685" lon="5.68925">
        <ele>272.2</ele>
        <time>2022-12-30T23:33:34Z</time>
      </trkpt>
      <trkpt lat="45.08687" lon="5.68849">
        <ele>271</ele>
        <time>2022-12-30T23:33:40Z</time>
      </trkpt>
      <trkpt lat="45.0992" lon="5.6982">
        <ele>256.1</ele>
        <time>2022-12-30T23:36:23Z</time>
      </trkpt>
      <trkpt lat="45.10405" lon="5.69254">
        <ele>253.6</ele>
        <time>2022-12-30T23:37:33Z</time>
      </trkpt>
      <trkpt lat="45.10578" lon="5.69321">
        <ele>249.9</ele>
        <time>2022-12-30T23:37:53Z</time>
      </trkpt>
      <trkpt lat="45.10617" lon="5.69425">
        <ele>243.7</ele>
        <time>2022-12-30T23:38:02Z</time>
      </trkpt>
      <trkpt lat="45.10718" lon="5.69436">
        <ele>242.8</ele>
        <time>2022-12-30T23:38:14Z</time>
      </trkpt>
      <trkpt lat="45.10737" lon="5.69346">
        <ele>256</ele>
        <time>2022-12-30T23:38:21Z</time>
      </trkpt>
      <trkpt lat="45.10947" lon="5.6937">
        <ele>287.3</ele>
        <time>2022-12-30T23:38:45Z</time>
      </trkpt>
      <trkpt lat="45.11116" lon="5.69519">
        <ele>263.2</ele>
        <time>2022-12-30T23:39:07Z</time>
      </trkpt>
      <trkpt lat="45.11819" lon="5.69584">
        <ele>253.7</ele>
        <time>2022-12-30T23:40:28Z</time>
      </trkpt>
      <trkpt lat="45.11929" lon="5.69754">
        <ele>230.8</ele>
        <time>2022-12-30T23:40:51Z</time>
      </trkpt>
      <trkpt lat="45.12094" lon="5.69685">
        <ele>250.4</ele>
        <time>2022-12-30T23:41:10Z</time>
      </trkpt>
      <trkpt lat="45.12321" lon="5.69771">
        <ele>252</ele>
        <time>2022-12-30T23:41:37Z</time>
      </trkpt>
      <trkpt lat="45.12353" lon="5.69515">
        <ele>234.8</ele>
        <time>2022-12-30T23:41:57Z</time>
      </trkpt>
      <trkpt lat="45.12922" lon="5.69535">
        <ele>242.5</ele>
        <time>2022-12-30T23:43:01Z</time>
      </trkpt>
      <trkpt lat="45.13739" lon="5.69779">
        <ele>237.9</ele>
        <time>2022-12-30T23:44:34Z</time>
      </trkpt>
      <trkpt lat="45.13726" lon="5.70062">
        <ele>252</ele>
        <time>2022-12-30T23:44:56Z</time>
      </trkpt>
      <trkpt lat="45.1383" lon="5.70082">
        <ele>238.6</ele>
        <time>2022-12-30T23:45:08Z</time>
      </trkpt>
      <trkpt lat="45.13818" lon="5.70244">
        <ele>239.2</ele>
        <time>2022-12-30T23:45:20Z</time>
      </trkpt>
      <trkpt lat="45.15193" lon="5.70709">
        <ele>232.1</ele>
        <time>2022-12-30T23:47:58Z</time>
      </trkpt>
      <trkpt lat="45.15108" lon="5.7093">
        <ele>227.8</ele>
        <time>2022-12-30T23:48:17Z</time>
      </trkpt>
      <trkpt lat="45.15412" lon="5.71227">
        <ele>234.3</ele>
        <time>2022-12-30T23:48:58Z</time>
      </trkpt>
      <trkpt lat="45.15996" lon="5.71397">
        <ele>232.1</ele>
        <time>2022-12-30T23:50:05Z</time>
      </trkpt>
      <trkpt lat="45.17177" lon="5.72442">
        <ele>223.6</ele>
        <time>2022-12-30T23:52:40Z</time>
      </trkpt>
      <trkpt lat="45.17512" lon="5.72553">
        <ele>228.5</ele>
        <time>2022-12-30T23:53:18Z</time>
      </trkpt>
      <trkpt lat="45.17779" lon="5.72173">
        <ele>218.5</ele>
        <time>2022-12-30T23:54:00Z</time>
      </trkpt>
      <trkpt lat="45.18897" lon="5.7156">
        <ele>216.8</ele>
        <time>2022-12-30T23:56:13Z</time>
      </trkpt>
      <trkpt lat="45.19039" lon="5.71585">
        <ele>224.2</ele>
        <time>2022-12-30T23:56:31Z</time>
      </trkpt>
      <trkpt lat="45.19365" lon="5.71437">
        <ele>211.4</ele>
        <time>2022-12-30T23:57:09Z</time>
      </trkpt>
    </trkseg>
  </trk>
</gpx>